Time;durP1;ratioP1;P1;durP2;ratioP2;P2;SDS_P1;SDS_P2;PMS_P1;PMS_P2;Temp;Humidity;BMP_temperature;BMP_pressure;BME280_temperature;BME280_humidity;BME280_pressure;Samples;Min_cycle;Max_cycle;Signal;HPM_P1;HPM_P2
2022/12/25 00:01:43;;;;;;;;;;;8.20;87.30;;;;;;5052748;28;20303;-87
2022/12/25 00:04:09;;;;;;;;;;;8.20;87.60;;;;;;5065075;28;20404;-87
2022/12/25 00:06:34;;;;;;;;;;;8.10;87.80;;;;;;5072538;28;19935;-87
2022/12/25 00:09:00;;;;;;;;;;;8.10;88.10;;;;;;5072528;28;19943;-87
2022/12/25 00:11:26;;;;;;;;;;;8.20;88.40;;;;;;5072569;28;19938;-87
2022/12/25 00:13:51;;;;;;;;;;;8.20;88.20;;;;;;5062303;28;19957;-87
2022/12/25 00:16:18;;;;;;;;;;;8.30;87.80;;;;;;5052244;28;19972;-87
2022/12/25 00:18:44;;;;;;;;;;;8.30;87.50;;;;;;5052391;28;20382;-87
2022/12/25 00:21:09;;;;;;;;;;;8.20;88.00;;;;;;5052374;28;19939;-87
2022/12/25 00:23:35;;;;;;;;;;;8.20;87.90;;;;;;5062296;28;19946;-87
2022/12/25 00:26:05;;;;;;;;;;;8.30;87.50;;;;;;5075957;28;20462;-87
2022/12/25 00:28:31;;;;;;;;;;;8.30;86.90;;;;;;5075975;28;19965;-87
2022/12/25 00:30:56;;;;;;;;;;;8.40;86.20;;;;;;5076166;28;19950;-87
2022/12/25 00:33:23;;;;;;;;;;;8.40;85.80;;;;;;5064380;28;20000;-87
2022/12/25 00:35:56;;;;;;;;;;;8.40;85.80;;;;;;5055658;28;20021;-87
2022/12/25 00:38:21;;;;;;;;;;;8.40;85.90;;;;;;5055780;28;19948;-87
2022/12/25 00:40:47;;;;;;;;;;;8.40;86.10;;;;;;5055725;28;19944;-87
2022/12/25 00:43:12;;;;;;;;;;;8.40;86.20;;;;;;5059041;28;20400;-87
2022/12/25 00:45:38;;;;;;;;;;;8.40;86.30;;;;;;5055600;28;19975;-87
2022/12/25 00:48:03;;;;;;;;;;;8.40;86.20;;;;;;5055607;28;19994;-87
2022/12/25 00:50:29;;;;;;;;;;;8.40;86.20;;;;;;5055506;28;19944;-88
2022/12/25 00:52:54;;;;;;;;;;;8.40;86.40;;;;;;5057292;28;20331;-88
2022/12/25 00:55:20;;;;;;;;;;;8.30;86.70;;;;;;5075257;28;20422;-87
2022/12/25 00:57:45;;;;;;;;;;;8.20;87.00;;;;;;5075413;28;19940;-87
2022/12/25 01:00:11;;;;;;;;;;;8.20;87.60;;;;;;5075328;28;19940;-87
2022/12/25 01:02:37;;;;;;;;;;;8.20;87.50;;;;;;5075288;28;20029;-87
2022/12/25 01:05:04;;;;;;;;;;;8.30;87.20;;;;;;5055326;28;20405;-87
2022/12/25 01:07:30;;;;;;;;;;;8.40;86.50;;;;;;5037309;28;20035;-87
2022/12/25 01:12:40;;;;;;;;;;;8.40;85.80;;;;;;5055382;28;20331;-87
2022/12/25 01:15:07;;;;;;;;;;;8.40;85.70;;;;;;5054949;28;20041;-87
2022/12/25 01:17:32;;;;;;;;;;;8.40;85.70;;;;;;5054948;28;19946;-87
2022/12/25 01:19:58;;;;;;;;;;;8.40;85.80;;;;;;5054972;28;20316;-87
2022/12/25 01:22:23;;;;;;;;;;;8.30;86.30;;;;;;5055210;28;19941;-87
2022/12/25 01:24:49;;;;;;;;;;;8.30;86.50;;;;;;5071129;28;20293;-87
2022/12/25 01:27:14;;;;;;;;;;;8.30;86.60;;;;;;5074871;28;20306;-87
2022/12/25 01:29:40;;;;;;;;;;;8.40;86.60;;;;;;5074806;28;19941;-88
2022/12/25 01:32:05;;;;;;;;;;;8.30;86.60;;;;;;5075051;28;20001;-87
2022/12/25 01:34:31;;;;;;;;;;;8.20;86.80;;;;;;5059966;28;20433;-87
2022/12/25 01:36:56;;;;;;;;;;;8.20;86.90;;;;;;5054697;28;19945;-87
2022/12/25 01:39:22;;;;;;;;;;;8.20;86.80;;;;;;5054655;28;19937;-87
2022/12/25 01:41:47;;;;;;;;;;;8.20;87.00;;;;;;5054584;28;20426;-87
2022/12/25 01:44:13;;;;;;;;;;;8.20;86.80;;;;;;5065764;28;20417;-87
2022/12/25 01:46:39;;;;;;;;;;;8.30;86.90;;;;;;5074446;28;19994;-87
2022/12/25 01:49:16;;;;;;;;;;;8.30;86.80;;;;;;5056539;28;19950;-87
2022/12/25 01:51:54;;;;;;;;;;;8.30;86.70;;;;;;5074360;28;20402;-87
2022/12/25 01:54:26;;;;;;;;;;;8.40;86.60;;;;;;5061857;28;19944;-87
2022/12/25 01:56:52;;;;;;;;;;;8.40;86.40;;;;;;5054253;28;19942;-87
2022/12/25 01:59:20;;;;;;;;;;;8.40;86.30;;;;;;5054230;28;19943;-87
2022/12/25 02:01:46;;;;;;;;;;;8.40;86.30;;;;;;5054195;28;19940;-87
2022/12/25 02:04:37;;;;;;;;;;;8.40;86.40;;;;;;5064804;28;20054;-87
2022/12/25 02:07:08;;;;;;;;;;;8.40;86.50;;;;;;5072053;28;20316;-87
2022/12/25 02:09:35;;;;;;;;;;;8.40;86.80;;;;;;5074038;28;19944;-87
2022/12/25 02:12:01;;;;;;;;;;;8.30;87.30;;;;;;5073938;28;19941;-87
2022/12/25 02:14:29;;;;;;;;;;;8.30;87.60;;;;;;5060532;28;20344;-87
2022/12/25 02:17:14;;;;;;;;;;;8.30;87.40;;;;;;5053823;28;20406;-87
2022/12/25 02:19:58;;;;;;;;;;;8.30;87.00;;;;;;5012892;28;19946;-87
2022/12/25 02:22:34;;;;;;;;;;;8.30;87.10;;;;;;5053750;28;20402;-87
2022/12/25 02:25:00;;;;;;;;;;;8.30;87.40;;;;;;5070384;28;19992;-87
2022/12/25 02:27:28;;;;;;;;;;;8.30;87.50;;;;;;5073636;28;20032;-87
2022/12/25 02:30:02;;;;;;;;;;;8.30;87.50;;;;;;5073606;28;19961;-87
2022/12/25 02:32:38;;;;;;;;;;;8.20;87.50;;;;;;5073577;28;19950;-87
2022/12/25 02:35:39;;;;;;;;;;;8.20;87.70;;;;;;5055823;28;19972;-87
2022/12/25 02:38:12;;;;;;;;;;;8.40;87.50;;;;;;4972528;28;19999;-87
2022/12/25 02:40:43;;;;;;;;;;;8.40;86.90;;;;;;5040923;28;19950;-87
2022/12/25 03:08:35;;;;;;;;;;;8.00;89.30;;;;;;5033484;28;19945;-87
2022/12/25 03:18:56;;;;;;;;;;;7.90;89.10;;;;;;5053276;28;20058;-87
2022/12/25 03:26:56;;;;;;;;;;;8.00;89.20;;;;;;5052964;28;19948;-87
2022/12/25 03:32:19;;;;;;;;;;;8.00;89.10;;;;;;5052706;28;20000;-87
2022/12/25 04:38:28;;;;;;;;;;;7.90;89.80;;;;;;5036182;28;19952;-87
2022/12/25 04:40:54;;;;;;;;;;;7.90;90.00;;;;;;5035794;28;19940;-87
2022/12/25 04:43:19;;;;;;;;;;;7.90;90.20;;;;;;5035548;28;19987;-87
2022/12/25 04:45:50;;;;;;;;;;;8.00;90.20;;;;;;5035707;28;19944;-87
2022/12/25 04:48:16;;;;;;;;;;;8.00;90.10;;;;;;5035680;28;19948;-87
2022/12/25 04:50:41;;;;;;;;;;;8.00;90.10;;;;;;5035613;28;19942;-87
2022/12/25 04:53:07;;;;;;;;;;;8.00;90.30;;;;;;5035169;28;19996;-87
2022/12/25 04:55:32;;;;;;;;;;;8.00;90.30;;;;;;5035373;28;20034;-87
2022/12/25 04:57:58;;;;;;;;;;;8.00;90.20;;;;;;5035477;28;19995;-87
2022/12/25 05:00:23;;;;;;;;;;;8.10;90.20;;;;;;5035409;28;19940;-87
2022/12/25 05:02:49;;;;;;;;;;;8.10;90.10;;;;;;5035432;28;19947;-87
2022/12/25 05:05:14;;;;;;;;;;;8.20;90.00;;;;;;5035365;28;20307;-87
2022/12/25 05:07:40;;;;;;;;;;;8.20;89.80;;;;;;5035048;28;19943;-87
2022/12/25 05:10:06;;;;;;;;;;;8.30;89.70;;;;;;5035178;28;20024;-87
2022/12/25 05:12:31;;;;;;;;;;;8.30;89.60;;;;;;5035259;28;19944;-87
2022/12/25 05:14:57;;;;;;;;;;;8.30;89.70;;;;;;5034700;28;19979;-87
2022/12/25 05:17:22;;;;;;;;;;;8.30;89.60;;;;;;5016829;28;20390;-87
2022/12/25 05:19:48;;;;;;;;;;;8.40;89.20;;;;;;5015351;28;19983;-87
2022/12/25 05:22:13;;;;;;;;;;;8.30;89.30;;;;;;5015289;28;19940;-87
2022/12/25 05:24:39;;;;;;;;;;;8.40;89.10;;;;;;5031661;28;20391;-87
2022/12/25 05:27:04;;;;;;;;;;;8.40;88.90;;;;;;5034971;28;19945;-87
2022/12/25 05:29:30;;;;;;;;;;;8.40;88.80;;;;;;5035184;28;19966;-87
2022/12/25 05:31:55;;;;;;;;;;;8.40;88.50;;;;;;5034837;28;19945;-87
2022/12/25 05:34:21;;;;;;;;;;;8.40;88.50;;;;;;5034584;28;20314;-87
2022/12/25 05:36:46;;;;;;;;;;;8.40;88.60;;;;;;5034743;28;19957;-87
2022/12/25 05:39:12;;;;;;;;;;;8.40;88.50;;;;;;5034745;28;20208;-87
2022/12/25 05:41:38;;;;;;;;;;;8.40;88.50;;;;;;5034658;28;20030;-87
2022/12/25 05:44:03;;;;;;;;;;;8.40;88.60;;;;;;5034486;28;20409;-87
2022/12/25 05:46:29;;;;;;;;;;;8.40;88.60;;;;;;5034607;28;19948;-87
2022/12/25 05:48:54;;;;;;;;;;;8.40;88.30;;;;;;5034769;28;20028;-87
2022/12/25 05:51:20;;;;;;;;;;;8.40;88.30;;;;;;5034249;28;20092;-87
2022/12/25 05:53:45;;;;;;;;;;;8.30;88.60;;;;;;5034563;28;19964;-87
2022/12/25 05:56:11;;;;;;;;;;;8.20;88.80;;;;;;5034290;28;19983;-87
2022/12/25 05:58:37;;;;;;;;;;;8.10;89.40;;;;;;5034354;28;20029;-87
2022/12/25 06:01:03;;;;;;;;;;;8.00;89.80;;;;;;5034235;28;20018;-87
2022/12/25 06:03:29;;;;;;;;;;;8.10;90.20;;;;;;5033609;28;19963;-87
2022/12/25 06:05:54;;;;;;;;;;;8.00;90.20;;;;;;5034214;28;20369;-87
2022/12/25 06:08:20;;;;;;;;;;;8.00;90.30;;;;;;5034138;28;20374;-87
2022/12/25 06:10:45;;;;;;;;;;;8.10;90.30;;;;;;5034397;28;19945;-87
2022/12/25 06:13:11;;;;;;;;;;;8.10;90.20;;;;;;5033870;28;20285;-87
2022/12/25 06:15:38;;;;;;;;;;;8.10;90.20;;;;;;5033826;28;20114;-87
2022/12/25 06:18:04;;;;;;;;;;;8.10;89.90;;;;;;5033991;28;20026;-87
2022/12/25 06:20:29;;;;;;;;;;;8.20;90.00;;;;;;5033163;28;20417;-87
2022/12/25 06:22:55;;;;;;;;;;;8.40;89.50;;;;;;5033576;28;20076;-87
2022/12/25 06:25:20;;;;;;;;;;;8.40;89.00;;;;;;5033833;28;19943;-87
2022/12/25 06:27:46;;;;;;;;;;;8.40;88.60;;;;;;5033833;28;19950;-87
2022/12/25 06:30:11;;;;;;;;;;;8.40;88.30;;;;;;5033776;28;20036;-86
2022/12/25 06:32:37;;;;;;;;;;;8.40;87.90;;;;;;5033529;28;20095;-87
2022/12/25 06:35:02;;;;;;;;;;;8.40;87.20;;;;;;5033598;28;19967;-86
2022/12/25 06:37:28;;;;;;;;;;;8.40;87.50;;;;;;5033642;28;20128;-87
2022/12/25 06:39:53;;;;;;;;;;;8.30;87.50;;;;;;5033621;28;19941;-87
2022/12/25 06:42:19;;;;;;;;;;;8.30;87.50;;;;;;5033287;28;19954;-87
2022/12/25 06:44:44;;;;;;;;;;;8.20;87.90;;;;;;5033497;28;19943;-87
2022/12/25 06:47:10;;;;;;;;;;;8.20;88.10;;;;;;5033510;28;19985;-87
2022/12/25 06:49:35;;;;;;;;;;;8.20;88.40;;;;;;5033451;28;19995;-87
2022/12/25 06:52:01;;;;;;;;;;;8.20;88.80;;;;;;5032978;28;19946;-87
2022/12/25 06:54:26;;;;;;;;;;;8.30;88.90;;;;;;5033361;28;19958;-87
2022/12/25 06:56:52;;;;;;;;;;;8.30;89.00;;;;;;5033306;28;19970;-87
2022/12/25 06:59:18;;;;;;;;;;;8.30;89.00;;;;;;5033597;28;19952;-87
2022/12/25 07:01:45;;;;;;;;;;;8.30;89.00;;;;;;5032961;28;20305;-87
2022/12/25 07:04:30;;;;;;;;;;;8.30;89.20;;;;;;5033508;28;19941;-86
2022/12/25 07:06:59;;;;;;;;;;;8.20;89.20;;;;;;5032386;28;20413;-87
2022/12/25 07:09:25;;;;;;;;;;;8.20;89.20;;;;;;5033231;28;20029;-87
2022/12/25 07:11:50;;;;;;;;;;;8.20;88.80;;;;;;5032894;28;20000;-87
2022/12/25 07:14:17;;;;;;;;;;;8.30;88.90;;;;;;5032978;28;19936;-87
2022/12/25 07:16:43;;;;;;;;;;;8.20;89.10;;;;;;5033051;28;19953;-88
2022/12/25 07:19:08;;;;;;;;;;;8.20;89.10;;;;;;5033116;28;19951;-87
2022/12/25 07:21:34;;;;;;;;;;;8.20;88.90;;;;;;5032758;28;20423;-87
2022/12/25 07:23:59;;;;;;;;;;;8.20;89.00;;;;;;5015287;28;19986;-87
2022/12/25 07:26:25;;;;;;;;;;;8.20;89.20;;;;;;5033255;28;19975;-87
2022/12/25 07:28:50;;;;;;;;;;;8.20;89.30;;;;;;5033026;28;19939;-87
2022/12/25 07:31:16;;;;;;;;;;;8.20;89.40;;;;;;5033881;28;19972;-87
2022/12/25 07:33:42;;;;;;;;;;;8.30;89.40;;;;;;5036783;28;19949;-87
2022/12/25 07:36:09;;;;;;;;;;;8.40;89.30;;;;;;5019242;28;19962;-88
2022/12/25 07:38:34;;;;;;;;;;;8.40;89.10;;;;;;5037008;28;19938;-87
2022/12/25 07:41:00;;;;;;;;;;;8.40;89.10;;;;;;5036904;28;19946;-88
2022/12/25 07:43:26;;;;;;;;;;;8.40;89.30;;;;;;5036508;28;19953;-87
2022/12/25 07:45:58;;;;;;;;;;;8.40;89.40;;;;;;5036889;28;19937;-87
2022/12/25 07:48:24;;;;;;;;;;;8.40;89.60;;;;;;5037121;28;20036;-87
2022/12/25 07:50:57;;;;;;;;;;;8.40;89.50;;;;;;5036733;28;19939;-87
2022/12/25 07:53:22;;;;;;;;;;;8.40;89.40;;;;;;5036332;28;19971;-86
2022/12/25 07:55:54;;;;;;;;;;;8.40;89.10;;;;;;5036579;28;20073;-87
2022/12/25 07:58:19;;;;;;;;;;;8.40;89.10;;;;;;5036666;28;19962;-87
2022/12/25 08:00:45;;;;;;;;;;;8.40;89.20;;;;;;5036325;28;20429;-87
2022/12/25 08:03:11;;;;;;;;;;;8.40;89.10;;;;;;5036802;28;19944;-87
2022/12/25 08:05:36;;;;;;;;;;;8.50;88.80;;;;;;5036439;28;19948;-87
2022/12/25 08:08:02;;;;;;;;;;;8.50;88.30;;;;;;5036137;28;19951;-87
2022/12/25 08:10:27;;;;;;;;;;;8.60;88.30;;;;;;5035806;28;19956;-87
2022/12/25 08:12:54;;;;;;;;;;;8.50;88.20;;;;;;5036361;28;19941;-87
2022/12/25 08:15:20;;;;;;;;;;;8.50;88.40;;;;;;5036115;28;19972;-87
2022/12/25 08:17:45;;;;;;;;;;;8.50;88.70;;;;;;5036013;28;19959;-87
2022/12/25 08:20:11;;;;;;;;;;;8.50;88.70;;;;;;5036192;28;20405;-87
2022/12/25 08:22:36;;;;;;;;;;;8.60;88.60;;;;;;5036171;28;19965;-87
2022/12/25 08:25:02;;;;;;;;;;;8.60;88.20;;;;;;5036139;28;19940;-87
2022/12/25 08:27:28;;;;;;;;;;;8.40;88.20;;;;;;5036092;28;20001;-87
2022/12/25 08:29:53;;;;;;;;;;;8.40;88.30;;;;;;5036042;28;19944;-87
2022/12/25 08:32:19;;;;;;;;;;;8.40;88.50;;;;;;5035988;28;20378;-87
2022/12/25 08:34:44;;;;;;;;;;;8.40;88.40;;;;;;5035903;28;19935;-87
2022/12/25 08:37:10;;;;;;;;;;;8.30;88.60;;;;;;5035923;28;19980;-87
2022/12/25 08:39:35;;;;;;;;;;;8.40;88.90;;;;;;5035592;28;20526;-87
2022/12/25 08:42:01;;;;;;;;;;;8.40;89.20;;;;;;5035811;28;19987;-87
2022/12/25 08:44:26;;;;;;;;;;;8.40;89.20;;;;;;5034425;28;20036;-87
2022/12/25 08:46:52;;;;;;;;;;;8.40;88.90;;;;;;5035527;28;19947;-87
2022/12/25 08:49:18;;;;;;;;;;;8.60;88.70;;;;;;5035703;28;19940;-87
2022/12/25 08:51:44;;;;;;;;;;;8.50;88.60;;;;;;5035579;28;19941;-87
2022/12/25 08:54:10;;;;;;;;;;;8.70;87.90;;;;;;5035258;28;19953;-87
2022/12/25 08:56:35;;;;;;;;;;;8.70;86.60;;;;;;5035519;28;19971;-87
2022/12/25 08:59:01;;;;;;;;;;;8.80;86.30;;;;;;5035510;28;19937;-87
2022/12/25 09:01:26;;;;;;;;;;;8.80;86.50;;;;;;5035488;28;19948;-87
2022/12/25 09:03:52;;;;;;;;;;;8.90;86.20;;;;;;5034762;28;20037;-87
2022/12/25 09:06:17;;;;;;;;;;;8.90;86.20;;;;;;5035372;28;20376;-87
2022/12/25 09:08:43;;;;;;;;;;;9.00;85.90;;;;;;5035318;28;19944;-87
2022/12/25 09:11:10;;;;;;;;;;;9.10;85.60;;;;;;5035302;28;19945;-87
2022/12/25 09:13:36;;;;;;;;;;;9.10;84.80;;;;;;5035082;28;19952;-87
2022/12/25 09:16:09;;;;;;;;;;;9.20;84.60;;;;;;5034937;28;19980;-87
2022/12/25 09:18:34;;;;;;;;;;;9.30;84.30;;;;;;5035164;28;19938;-87
2022/12/25 09:21:01;;;;;;;;;;;9.40;83.80;;;;;;5035145;28;20079;-87
2022/12/25 09:23:27;;;;;;;;;;;9.50;83.50;;;;;;5034780;28;20418;-87
2022/12/25 09:25:52;;;;;;;;;;;9.60;81.80;;;;;;5035256;28;20048;-87
2022/12/25 09:28:18;;;;;;;;;;;9.70;81.40;;;;;;5034990;28;19964;-87
2022/12/25 09:30:44;;;;;;;;;;;9.80;81.00;;;;;;5034985;28;19941;-87
2022/12/25 09:33:09;;;;;;;;;;;9.90;80.30;;;;;;5034612;28;19946;-87
2022/12/25 09:35:35;;;;;;;;;;;10.10;79.70;;;;;;5034043;28;19962;-87
2022/12/25 09:38:00;;;;;;;;;;;10.20;79.60;;;;;;5034806;28;19946;-87
2022/12/25 09:40:28;;;;;;;;;;;10.40;79.80;;;;;;5034776;28;20317;-86
2022/12/25 09:42:55;;;;;;;;;;;10.50;80.10;;;;;;5034410;28;20019;-87
2022/12/25 09:45:25;;;;;;;;;;;10.60;79.20;;;;;;5034634;28;20386;-87
2022/12/25 09:47:54;;;;;;;;;;;10.70;78.00;;;;;;5034625;28;19941;-87
2022/12/25 09:50:27;;;;;;;;;;;10.90;77.20;;;;;;5034589;28;19941;-87
2022/12/25 09:53:04;;;;;;;;;;;11.00;77.60;;;;;;5034290;28;19953;-87
2022/12/25 09:55:32;;;;;;;;;;;11.00;77.80;;;;;;5030193;28;20424;-87
2022/12/25 09:57:59;;;;;;;;;;;11.00;77.60;;;;;;5034404;28;19949;-87
2022/12/25 10:00:29;;;;;;;;;;;11.00;78.10;;;;;;5034363;28;19986;-87
2022/12/25 10:03:04;;;;;;;;;;;11.00;78.90;;;;;;5034075;28;19990;-87
2022/12/25 10:05:29;;;;;;;;;;;11.00;78.20;;;;;;5019419;28;20048;-87
2022/12/25 10:08:02;;;;;;;;;;;10.90;77.90;;;;;;5034216;28;20040;-87
2022/12/25 10:10:39;;;;;;;;;;;10.80;78.30;;;;;;5034140;28;20459;-87
2022/12/25 10:13:21;;;;;;;;;;;10.80;78.70;;;;;;5033854;28;20393;-87
2022/12/25 10:15:49;;;;;;;;;;;10.80;79.40;;;;;;5033703;28;19974;-87
2022/12/25 10:18:25;;;;;;;;;;;10.70;79.00;;;;;;5034041;28;20396;-87
2022/12/25 10:20:52;;;;;;;;;;;10.60;79.70;;;;;;5033901;28;19948;-87
2022/12/25 10:23:23;;;;;;;;;;;10.60;80.10;;;;;;5033702;28;20406;-87
2022/12/25 10:25:50;;;;;;;;;;;10.60;79.90;;;;;;5033929;28;20014;-87
2022/12/25 10:28:39;;;;;;;;;;;10.50;80.30;;;;;;5033870;28;20038;-87
2022/12/25 10:31:34;;;;;;;;;;;10.60;80.70;;;;;;5033346;28;19955;-87
2022/12/25 10:33:59;;;;;;;;;;;10.60;80.10;;;;;;5011621;28;19949;-87
2022/12/25 10:36:26;;;;;;;;;;;10.70;80.70;;;;;;5033462;28;19961;-87
2022/12/25 10:38:52;;;;;;;;;;;10.70;80.20;;;;;;5033940;28;19940;-87
2022/12/25 10:41:24;;;;;;;;;;;10.70;80.20;;;;;;5033853;28;20086;-87
2022/12/25 10:43:51;;;;;;;;;;;10.70;80.60;;;;;;5033283;28;19947;-87
2022/12/25 10:46:18;;;;;;;;;;;10.70;80.10;;;;;;5033458;28;19946;-87
2022/12/25 10:48:51;;;;;;;;;;;10.70;80.10;;;;;;5033753;28;19998;-87
2022/12/25 10:51:30;;;;;;;;;;;10.70;80.80;;;;;;5033536;28;19963;-87
2022/12/25 10:53:56;;;;;;;;;;;10.80;80.90;;;;;;5032998;28;19961;-87
2022/12/25 10:56:22;;;;;;;;;;;10.80;80.80;;;;;;5033307;28;19964;-87
2022/12/25 10:58:47;;;;;;;;;;;10.80;80.90;;;;;;5033595;28;20434;-87
2022/12/25 11:01:13;;;;;;;;;;;10.80;81.40;;;;;;5033366;28;19944;-87
2022/12/25 11:03:40;;;;;;;;;;;10.90;81.30;;;;;;5033138;28;20292;-87
2022/12/25 11:06:06;;;;;;;;;;;11.00;80.70;;;;;;5032295;28;20448;-87
2022/12/25 11:08:33;;;;;;;;;;;11.00;80.90;;;;;;5033524;28;19960;-87
2022/12/25 11:11:05;;;;;;;;;;;11.10;81.10;;;;;;5033231;28;19942;-87
2022/12/25 11:13:32;;;;;;;;;;;11.10;80.70;;;;;;5032968;28;20046;-87
2022/12/25 11:16:09;;;;;;;;;;;11.10;80.80;;;;;;5057699;23;19984;-87
2022/12/25 11:18:44;;;;;;;;;;;11.20;80.80;;;;;;5053279;28;19968;-87
2022/12/25 11:21:29;;;;;;;;;;;11.20;80.10;;;;;;5052969;28;19943;-87
2022/12/25 11:24:01;;;;;;;;;;;11.30;78.70;;;;;;5051913;28;21428;-87
2022/12/25 11:26:28;;;;;;;;;;;11.30;78.50;;;;;;5035064;28;19950;-87
2022/12/25 11:28:55;;;;;;;;;;;11.30;77.90;;;;;;5052884;28;19988;-87
2022/12/25 11:31:22;;;;;;;;;;;11.30;77.50;;;;;;5052888;28;19980;-87
2022/12/25 11:33:56;;;;;;;;;;;11.40;78.10;;;;;;5052499;28;19949;-87
2022/12/25 11:36:40;;;;;;;;;;;11.40;78.10;;;;;;5052783;28;19959;-87
2022/12/25 11:39:19;;;;;;;;;;;11.50;78.20;;;;;;5052732;28;19940;-87
2022/12/25 11:41:45;;;;;;;;;;;11.40;77.60;;;;;;5032624;28;19943;-87
2022/12/25 11:44:19;;;;;;;;;;;11.40;78.10;;;;;;5041026;28;20031;-87
2022/12/25 11:46:49;;;;;;;;;;;11.40;78.60;;;;;;5052739;28;20034;-87
2022/12/25 11:49:17;;;;;;;;;;;11.40;78.30;;;;;;5052959;28;19987;-87
2022/12/25 11:51:44;;;;;;;;;;;11.40;79.20;;;;;;5052563;28;20350;-87
2022/12/25 11:54:25;;;;;;;;;;;11.40;78.90;;;;;;5051946;28;19944;-87
2022/12/25 11:56:51;;;;;;;;;;;11.50;78.80;;;;;;5052368;28;19980;-87
2022/12/25 11:59:26;;;;;;;;;;;11.60;78.40;;;;;;5052598;28;19937;-87
2022/12/25 12:01:55;;;;;;;;;;;11.60;78.30;;;;;;5052543;28;20364;-87
2022/12/25 12:04:24;;;;;;;;;;;11.60;78.40;;;;;;5052936;28;19979;-87
2022/12/25 12:06:49;;;;;;;;;;;11.60;78.40;;;;;;5052513;28;19948;-87
2022/12/25 12:09:34;;;;;;;;;;;11.60;78.80;;;;;;5052546;28;19969;-87
2022/12/25 12:12:02;;;;;;;;;;;11.60;78.50;;;;;;5052499;28;19948;-87
2022/12/25 12:14:27;;;;;;;;;;;11.60;78.10;;;;;;5052015;28;19969;-87
2022/12/25 12:16:53;;;;;;;;;;;11.70;78.50;;;;;;5052378;28;20364;-87
2022/12/25 12:19:27;;;;;;;;;;;11.70;77.80;;;;;;5054925;28;19996;-87
2022/12/25 12:21:55;;;;;;;;;;;11.80;77.20;;;;;;5055747;28;19979;-87
2022/12/25 12:24:22;;;;;;;;;;;11.90;77.20;;;;;;5056162;28;19952;-87
2022/12/25 12:27:01;;;;;;;;;;;12.00;77.20;;;;;;5056149;28;20263;-87
2022/12/25 12:29:38;;;;;;;;;;;12.10;76.90;;;;;;5056078;28;19979;-87
2022/12/25 12:32:05;;;;;;;;;;;12.10;76.60;;;;;;5055593;28;20384;-87
2022/12/25 12:34:41;;;;;;;;;;;12.40;76.00;;;;;;5055900;28;19954;-87
2022/12/25 12:37:13;;;;;;;;;;;12.40;75.30;;;;;;5055632;28;20407;-87
2022/12/25 12:39:39;;;;;;;;;;;12.40;75.30;;;;;;5055880;28;19969;-87
2022/12/25 12:42:12;;;;;;;;;;;12.40;75.00;;;;;;5037615;28;20392;-87
2022/12/25 12:44:37;;;;;;;;;;;12.40;74.50;;;;;;5055724;28;19944;-87
2022/12/25 12:47:03;;;;;;;;;;;12.40;74.70;;;;;;5055709;28;19988;-87
2022/12/25 12:49:33;;;;;;;;;;;12.40;75.00;;;;;;5055718;28;19943;-87
2022/12/25 12:52:17;;;;;;;;;;;12.40;75.00;;;;;;5037457;28;20414;-87
2022/12/25 12:55:03;;;;;;;;;;;12.40;75.10;;;;;;5055430;28;19949;-87
2022/12/25 12:57:31;;;;;;;;;;;12.60;76.00;;;;;;5054831;28;20404;-87
2022/12/25 12:59:57;;;;;;;;;;;12.60;75.30;;;;;;5055740;28;19952;-87
2022/12/25 13:02:26;;;;;;;;;;;12.60;74.60;;;;;;5055018;28;19942;-88
2022/12/25 13:04:51;;;;;;;;;;;12.70;74.80;;;;;;5055379;28;19942;-88
2022/12/25 13:07:34;;;;;;;;;;;12.80;75.30;;;;;;5055609;28;19943;-88
2022/12/25 13:10:02;;;;;;;;;;;12.80;75.30;;;;;;5055307;28;20170;-87
2022/12/25 13:12:28;;;;;;;;;;;12.60;75.10;;;;;;5054580;28;19938;-87
2022/12/25 13:14:53;;;;;;;;;;;12.60;75.60;;;;;;5054958;28;20071;-87
2022/12/25 13:17:20;;;;;;;;;;;12.50;76.50;;;;;;5055162;28;19995;-87
2022/12/25 13:19:48;;;;;;;;;;;12.40;76.30;;;;;;5055113;28;20406;-88
2022/12/25 13:22:24;;;;;;;;;;;12.30;76.80;;;;;;5054806;28;19995;-87
2022/12/25 13:24:54;;;;;;;;;;;12.30;77.10;;;;;;5053869;28;19941;-88
2022/12/25 13:27:21;;;;;;;;;;;12.30;77.40;;;;;;5054986;28;20006;-87
2022/12/25 13:29:46;;;;;;;;;;;12.30;77.60;;;;;;5054697;28;20028;-87
2022/12/25 13:32:32;;;;;;;;;;;12.20;76.80;;;;;;5054014;28;19990;-87
2022/12/25 13:34:58;;;;;;;;;;;12.20;77.40;;;;;;5054540;28;19953;-87
2022/12/25 13:37:25;;;;;;;;;;;12.10;77.60;;;;;;5036898;28;20395;-87
2022/12/25 13:39:52;;;;;;;;;;;12.00;78.20;;;;;;5054983;28;19943;-87
2022/12/25 13:42:19;;;;;;;;;;;11.90;78.30;;;;;;5054345;28;20002;-87
2022/12/25 13:44:48;;;;;;;;;;;11.90;79.20;;;;;;5054943;28;20303;-88
2022/12/25 13:47:44;;;;;;;;;;;11.90;79.70;;;;;;5054541;28;19935;-87
2022/12/25 13:50:19;;;;;;;;;;;11.90;80.00;;;;;;5046010;28;19951;-88
2022/12/25 13:52:44;;;;;;;;;;;11.80;80.30;;;;;;5053897;28;19957;-88
2022/12/25 13:55:13;;;;;;;;;;;11.80;80.80;;;;;;5054258;28;20059;-87
2022/12/25 13:57:42;;;;;;;;;;;11.80;80.50;;;;;;5054386;28;20025;-88
2022/12/25 14:00:17;;;;;;;;;;;11.80;80.60;;;;;;5054223;28;19943;-87
2022/12/25 14:02:44;;;;;;;;;;;11.80;80.70;;;;;;5053820;28;19944;-87
2022/12/25 14:05:26;;;;;;;;;;;11.80;80.90;;;;;;5054223;28;19941;-88
2022/12/25 14:07:52;;;;;;;;;;;11.70;81.00;;;;;;5054159;28;19941;-87
2022/12/25 14:10:19;;;;;;;;;;;11.70;80.80;;;;;;5053666;28;19945;-88
2022/12/25 14:12:48;;;;;;;;;;;11.60;81.10;;;;;;5054082;28;20031;-88
2022/12/25 14:15:16;;;;;;;;;;;11.60;81.30;;;;;;5053698;28;20025;-88
2022/12/25 14:17:42;;;;;;;;;;;11.60;81.50;;;;;;5034040;28;20415;-87
2022/12/25 14:20:20;;;;;;;;;;;11.40;81.70;;;;;;5041497;28;19940;-87
2022/12/25 14:22:49;;;;;;;;;;;11.40;81.80;;;;;;5053913;28;20024;-88
2022/12/25 14:25:14;;;;;;;;;;;11.40;81.40;;;;;;5053814;28;19952;-87
2022/12/25 14:27:46;;;;;;;;;;;11.40;81.80;;;;;;5053810;28;20329;-87
2022/12/25 14:30:12;;;;;;;;;;;11.30;82.20;;;;;;5053281;28;19941;-87
2022/12/25 14:32:41;;;;;;;;;;;11.20;82.60;;;;;;5053740;28;19943;-87
2022/12/25 14:35:09;;;;;;;;;;;11.10;82.60;;;;;;5053629;28;19939;-87
2022/12/25 14:37:37;;;;;;;;;;;11.10;82.70;;;;;;5054257;28;19950;-87
2022/12/25 14:40:23;;;;;;;;;;;11.00;83.10;;;;;;5053337;28;19952;-88
2022/12/25 14:43:15;;;;;;;;;;;11.00;83.20;;;;;;5053176;28;20313;-87
2022/12/25 14:45:40;;;;;;;;;;;11.00;83.40;;;;;;5015242;28;19941;-88
2022/12/25 14:48:19;;;;;;;;;;;11.00;83.50;;;;;;5053463;28;19939;-87
2022/12/25 14:51:03;;;;;;;;;;;11.00;83.40;;;;;;5052800;28;19942;-88
2022/12/25 14:53:37;;;;;;;;;;;10.90;83.30;;;;;;5053005;28;20042;-87
2022/12/25 14:56:03;;;;;;;;;;;10.90;83.30;;;;;;5053207;28;19964;-88
2022/12/25 14:58:30;;;;;;;;;;;10.90;83.30;;;;;;5053244;28;19938;-87
2022/12/25 15:01:00;;;;;;;;;;;10.90;83.30;;;;;;5053018;28;19940;-87
2022/12/25 15:03:30;;;;;;;;;;;10.90;83.50;;;;;;5053234;28;20405;-87
2022/12/25 15:05:57;;;;;;;;;;;10.80;83.80;;;;;;5053188;28;20028;-87
2022/12/25 15:08:23;;;;;;;;;;;10.80;84.00;;;;;;5053139;28;19936;-87
2022/12/25 15:10:49;;;;;;;;;;;10.70;84.30;;;;;;5052734;28;19944;-87
2022/12/25 15:13:17;;;;;;;;;;;10.70;84.60;;;;;;5053118;28;20029;-87
2022/12/25 15:15:54;;;;;;;;;;;10.60;84.70;;;;;;5052812;28;19982;-87
2022/12/25 15:18:21;;;;;;;;;;;10.60;84.90;;;;;;5034811;28;19945;-87
2022/12/25 15:20:50;;;;;;;;;;;10.60;85.10;;;;;;5053025;28;19960;-87
2022/12/25 15:23:15;;;;;;;;;;;10.50;85.10;;;;;;5053002;28;19949;-87
2022/12/25 15:25:41;;;;;;;;;;;10.60;85.20;;;;;;5053192;28;19942;-87
2022/12/25 15:28:08;;;;;;;;;;;10.60;85.10;;;;;;5052639;28;20332;-87
2022/12/25 15:30:36;;;;;;;;;;;10.60;84.90;;;;;;5052559;28;20005;-87
2022/12/25 15:33:02;;;;;;;;;;;10.60;84.80;;;;;;5052881;28;19947;-87
2022/12/25 15:35:28;;;;;;;;;;;10.60;84.90;;;;;;5052763;28;20325;-87
2022/12/25 15:37:53;;;;;;;;;;;10.50;84.90;;;;;;5052534;28;20049;-87
2022/12/25 15:40:20;;;;;;;;;;;10.40;85.10;;;;;;5052384;28;19944;-87
2022/12/25 15:42:46;;;;;;;;;;;10.40;85.20;;;;;;5052789;28;19944;-87
2022/12/25 15:45:25;;;;;;;;;;;10.40;85.30;;;;;;5052698;28;20000;-87
2022/12/25 15:47:51;;;;;;;;;;;10.30;85.40;;;;;;5052613;28;19980;-87
2022/12/25 15:50:17;;;;;;;;;;;10.30;85.70;;;;;;5052658;28;20408;-87
2022/12/25 15:52:43;;;;;;;;;;;10.30;85.90;;;;;;5054255;28;20042;-87
2022/12/25 15:55:09;;;;;;;;;;;10.30;85.90;;;;;;5056480;28;20035;-87
2022/12/25 15:57:35;;;;;;;;;;;10.30;86.00;;;;;;5056704;28;19990;-87
2022/12/25 16:00:01;;;;;;;;;;;10.30;85.90;;;;;;5056365;28;19994;-87
2022/12/25 16:02:27;;;;;;;;;;;10.30;85.80;;;;;;5056558;28;19937;-87
2022/12/25 16:04:53;;;;;;;;;;;10.30;85.70;;;;;;5056511;28;19947;-87
2022/12/25 16:07:20;;;;;;;;;;;10.20;85.80;;;;;;5055309;28;20400;-87
2022/12/25 16:09:46;;;;;;;;;;;10.20;85.80;;;;;;5056233;28;19972;-87
2022/12/25 16:12:11;;;;;;;;;;;10.10;85.80;;;;;;5056345;28;20394;-87
2022/12/25 16:14:37;;;;;;;;;;;10.10;86.00;;;;;;5056122;28;19977;-87
2022/12/25 16:17:03;;;;;;;;;;;10.00;86.20;;;;;;5055952;28;19981;-87
2022/12/25 16:19:28;;;;;;;;;;;10.00;86.40;;;;;;5056258;28;19939;-87